createdAt,value
2018-09-22T00:01:38.345Z,89.60
2018-09-22T00:04:08.290Z,90.00
2018-09-22T00:06:37.929Z,90.00
2018-09-22T00:09:09.580Z,90.10
2018-09-22T00:11:39.212Z,90.00
2018-09-22T00:14:08.956Z,89.60
2018-09-22T00:16:38.605Z,89.60
2018-09-22T00:19:08.251Z,89.30
2018-09-22T00:21:37.872Z,88.80
2018-09-22T00:24:07.528Z,88.80
2018-09-22T00:26:37.145Z,89.10
2018-09-22T00:29:06.843Z,89.20
2018-09-22T00:31:37.653Z,89.10
2018-09-22T00:34:07.300Z,89.30
2018-09-22T00:36:36.944Z,89.10
2018-09-22T00:39:08.696Z,89.00
2018-09-22T00:41:38.353Z,88.90
2018-09-22T00:44:08.145Z,88.80
2018-09-22T00:46:37.781Z,88.50
2018-09-22T00:49:07.484Z,88.60
2018-09-22T00:51:37.124Z,88.50
2018-09-22T00:54:06.468Z,88.50
2018-09-22T00:56:36.115Z,88.70
2018-09-22T00:59:05.792Z,89.00
2018-09-22T01:01:35.442Z,88.80
2018-09-22T01:04:05.133Z,88.60
2018-09-22T01:06:34.781Z,88.60
2018-09-22T01:09:05.905Z,88.50
2018-09-22T01:11:35.547Z,88.20
2018-09-22T01:14:05.254Z,88.50
2018-09-22T01:16:34.875Z,88.40
2018-09-22T01:19:04.492Z,88.60
2018-09-22T01:21:34.120Z,88.70
2018-09-22T01:24:03.746Z,88.90
2018-09-22T01:26:33.498Z,89.30
2018-09-22T01:29:03.160Z,89.70
2018-09-22T01:31:32.765Z,89.70
2018-09-22T01:34:02.379Z,89.80
2018-09-22T01:36:32.017Z,90.00
2018-09-22T01:39:01.652Z,90.00
2018-09-22T01:41:31.303Z,90.00
2018-09-22T01:44:00.968Z,90.10
2018-09-22T01:46:30.653Z,90.10
2018-09-22T01:49:00.369Z,90.10
2018-09-22T01:51:29.984Z,90.20
2018-09-22T01:53:59.601Z,90.30
2018-09-22T01:56:29.243Z,90.30
2018-09-22T01:58:58.863Z,90.40
2018-09-22T02:01:29.214Z,90.30
2018-09-22T02:03:58.924Z,90.40
2018-09-22T02:06:28.555Z,90.40
2018-09-22T02:08:58.216Z,90.40
2018-09-22T02:11:27.953Z,90.50
2018-09-22T02:13:57.736Z,90.50
2018-09-22T02:16:27.520Z,90.50
2018-09-22T02:18:57.173Z,90.50
2018-09-22T02:21:26.964Z,90.50
2018-09-22T02:23:56.615Z,90.50
2018-09-22T02:26:26.273Z,90.50
2018-09-22T02:28:56.284Z,90.50
2018-09-22T02:31:25.900Z,90.50
2018-09-22T02:33:55.594Z,90.40
2018-09-22T02:36:25.193Z,90.50
2018-09-22T02:38:54.841Z,90.40
2018-09-22T02:41:24.463Z,90.30
2018-09-22T02:43:54.120Z,90.20
2018-09-22T02:46:23.774Z,90.10
2018-09-22T02:48:53.425Z,90.10
2018-09-22T02:51:23.036Z,90.00
2018-09-22T02:53:52.691Z,90.00
2018-09-22T02:56:22.313Z,90.00
2018-09-22T02:58:51.960Z,89.80
2018-09-22T03:01:21.723Z,90.00
2018-09-22T03:03:51.464Z,90.00
2018-09-22T03:06:21.108Z,90.00
2018-09-22T03:08:50.875Z,89.80
2018-09-22T03:11:20.463Z,89.60
2018-09-22T03:13:50.304Z,89.70
2018-09-22T03:16:19.944Z,89.60
2018-09-22T03:18:49.583Z,89.60
2018-09-22T03:21:19.197Z,89.40
2018-09-22T03:23:48.847Z,89.30
2018-09-22T03:26:18.488Z,89.30
2018-09-22T03:28:48.174Z,89.10
2018-09-22T03:31:17.935Z,89.10
2018-09-22T03:33:47.960Z,89.80
2018-09-22T03:36:17.999Z,88.80
2018-09-22T03:38:47.630Z,89.00
2018-09-22T03:41:17.292Z,89.10
2018-09-22T03:43:47.268Z,88.90
2018-09-22T03:46:16.908Z,88.90
2018-09-22T03:48:46.550Z,89.30
2018-09-22T03:51:16.273Z,89.40
2018-09-22T03:53:45.988Z,89.10
2018-09-22T03:56:15.725Z,88.80
2018-09-22T03:58:45.507Z,89.10
2018-09-22T04:01:15.232Z,88.70
2018-09-22T04:03:44.951Z,88.10
2018-09-22T04:06:14.711Z,87.90
2018-09-22T04:08:44.454Z,88.20
2018-09-22T04:11:14.100Z,88.30
2018-09-22T04:13:43.724Z,88.20
2018-09-22T04:16:13.545Z,88.30
2018-09-22T04:18:43.184Z,88.10
2018-09-22T04:21:12.806Z,88.40
2018-09-22T04:23:42.450Z,88.20
2018-09-22T04:26:12.091Z,88.40
2018-09-22T04:28:41.696Z,88.40
2018-09-22T04:31:11.339Z,88.50
2018-09-22T04:33:41.009Z,88.50
2018-09-22T04:36:10.655Z,88.00
2018-09-22T04:38:40.340Z,87.70
2018-09-22T04:41:10.007Z,87.80
2018-09-22T04:43:39.700Z,87.80
2018-09-22T04:46:09.339Z,88.00
2018-09-22T04:48:38.975Z,87.80
2018-09-22T04:51:08.584Z,88.10
2018-09-22T04:53:38.211Z,88.10
2018-09-22T04:56:07.898Z,88.00
2018-09-22T04:58:37.535Z,87.70
2018-09-22T05:01:07.300Z,87.80
2018-09-22T05:03:36.975Z,87.60
2018-09-22T05:06:06.756Z,87.60
2018-09-22T05:08:36.480Z,87.20
2018-09-22T05:11:06.103Z,87.40
2018-09-22T05:13:35.779Z,87.30
2018-09-22T05:16:05.485Z,88.00
2018-09-22T05:18:35.239Z,86.90
2018-09-22T05:21:05.748Z,86.30
2018-09-22T05:23:35.398Z,86.40
2018-09-22T05:26:05.030Z,86.40
2018-09-22T05:28:35.201Z,86.20
2018-09-22T05:31:04.830Z,86.10
2018-09-22T05:33:34.552Z,86.00
2018-09-22T05:36:04.163Z,85.90
2018-09-22T05:38:33.879Z,85.80
2018-09-22T05:41:03.516Z,85.40
2018-09-22T05:43:33.168Z,85.00
2018-09-22T05:46:02.962Z,84.70
2018-09-22T05:48:32.712Z,84.70
2018-09-22T05:51:02.447Z,84.60
2018-09-22T05:53:32.185Z,83.90
2018-09-22T05:56:02.083Z,83.60
2018-09-22T05:58:32.661Z,83.50
2018-09-22T06:01:02.841Z,83.70
2018-09-22T06:03:32.642Z,83.20
2018-09-22T06:06:02.351Z,82.30
2018-09-22T06:08:32.152Z,82.60
2018-09-22T06:11:01.952Z,81.90
2018-09-22T06:13:32.580Z,82.20
2018-09-22T06:16:02.362Z,81.90
2018-09-22T06:18:32.355Z,81.70
2018-09-22T06:21:02.103Z,81.80
2018-09-22T06:23:32.105Z,81.30
2018-09-22T06:26:01.747Z,80.90
2018-09-22T06:28:31.374Z,80.80
2018-09-22T06:31:00.997Z,80.40
2018-09-22T06:33:30.680Z,79.80
2018-09-22T06:36:00.345Z,79.90
2018-09-22T06:38:30.080Z,79.40
2018-09-22T06:40:59.750Z,79.80
2018-09-22T06:43:29.413Z,79.50
2018-09-22T06:45:59.608Z,78.30
2018-09-22T06:48:29.332Z,78.20
2018-09-22T06:50:59.121Z,78.40
2018-09-22T06:53:29.164Z,78.10
2018-09-22T06:55:59.033Z,77.80
2018-09-22T06:58:28.753Z,78.10
2018-09-22T07:00:58.432Z,77.60
2018-09-22T07:03:28.268Z,77.40
2018-09-22T07:05:58.095Z,77.30
2018-09-22T07:08:27.747Z,78.00
2018-09-22T07:10:57.443Z,78.40
2018-09-22T07:13:27.105Z,78.30
2018-09-22T07:15:56.764Z,77.40
2018-09-22T07:18:26.398Z,77.40
2018-09-22T07:21:01.297Z,76.60
2018-09-22T07:23:31.251Z,76.70
2018-09-22T07:26:01.030Z,76.00
2018-09-22T07:28:30.890Z,74.90
2018-09-22T07:31:00.937Z,74.30
2018-09-22T07:33:30.652Z,74.00
2018-09-22T07:47:44.474Z,73.70
2018-09-22T07:53:15.150Z,73.70
2018-09-22T07:55:44.874Z,74.70
2018-09-22T07:58:14.618Z,74.30
2018-09-22T08:00:44.409Z,74.20
2018-09-22T08:03:14.932Z,74.50
2018-09-22T08:05:45.014Z,74.20
2018-09-22T08:08:14.783Z,73.40
2018-09-22T08:10:44.526Z,72.70
2018-09-22T08:13:14.234Z,72.50
2018-09-22T08:15:43.999Z,72.70
2018-09-22T08:18:13.825Z,71.70
2018-09-22T08:20:43.548Z,71.40
2018-09-22T08:23:13.327Z,70.50
2018-09-22T08:25:43.184Z,70.90
2018-09-22T08:28:12.895Z,71.70
2018-09-22T08:30:43.283Z,72.00
2018-09-22T08:33:13.221Z,71.90
2018-09-22T08:35:43.077Z,71.50
2018-09-22T08:38:13.735Z,71.20
2018-09-22T08:40:43.523Z,70.60
2018-09-22T08:43:13.700Z,70.60
2018-09-22T08:45:43.478Z,70.20
2018-09-22T08:48:13.237Z,70.00
2018-09-22T08:50:43.783Z,70.70
2018-09-22T08:53:13.532Z,70.00
2018-09-22T08:55:43.242Z,69.50
2018-09-22T08:58:12.926Z,69.40
2018-09-22T09:00:42.600Z,69.90
2018-09-22T09:03:12.311Z,70.20
2018-09-22T09:05:42.022Z,70.30
2018-09-22T09:08:12.024Z,70.70
2018-09-22T09:10:41.823Z,69.80
2018-09-22T09:13:11.582Z,70.00
2018-09-22T09:15:41.606Z,69.20
2018-09-22T09:18:11.438Z,68.40
2018-09-22T09:20:41.153Z,67.60
2018-09-22T09:23:10.812Z,67.10
2018-09-22T09:25:40.532Z,66.50
2018-09-22T09:28:10.177Z,66.50
2018-09-22T09:30:40.324Z,66.60
2018-09-22T09:33:10.099Z,67.10
2018-09-22T09:35:39.798Z,67.20
2018-09-22T09:38:09.632Z,66.10
2018-09-22T09:40:39.288Z,65.80
2018-09-22T09:43:09.092Z,65.70
2018-09-22T09:45:38.763Z,63.90
2018-09-22T09:48:08.495Z,63.70
2018-09-22T09:50:38.167Z,63.70
2018-09-22T09:53:07.840Z,62.60
2018-09-22T09:55:37.498Z,62.60
2018-09-22T09:58:07.315Z,63.00
2018-09-22T10:00:42.219Z,61.50
2018-09-22T10:03:12.004Z,62.30
2018-09-22T10:05:41.669Z,62.90
2018-09-22T10:08:11.326Z,63.30
2018-09-22T10:10:40.951Z,63.30
2018-09-22T10:13:10.588Z,63.10
2018-09-22T10:15:40.240Z,62.90
2018-09-22T10:18:09.887Z,62.50
2018-09-22T10:20:39.544Z,61.90
2018-09-22T10:23:09.203Z,61.50
2018-09-22T10:25:38.813Z,62.20
2018-09-22T10:28:08.510Z,61.90
2018-09-22T10:30:38.161Z,61.10
2018-09-22T10:33:07.797Z,60.70
2018-09-22T10:35:37.440Z,59.40
2018-09-22T10:38:07.136Z,58.90
2018-09-22T10:40:36.773Z,58.80
2018-09-22T10:43:06.526Z,58.40
2018-09-22T10:45:36.395Z,58.60
2018-09-22T10:48:06.190Z,58.50
2018-09-22T10:50:35.864Z,58.70
2018-09-22T10:53:05.630Z,58.70
2018-09-22T10:55:35.228Z,58.30
2018-09-22T10:58:04.944Z,58.20
2018-09-22T11:00:34.584Z,58.50
2018-09-22T11:03:04.500Z,57.80
2018-09-22T11:05:34.176Z,57.50
2018-09-22T11:08:03.811Z,57.60
2018-09-22T11:10:33.448Z,57.70
2018-09-22T11:13:03.072Z,58.10
2018-09-22T11:15:32.763Z,57.90
2018-09-22T11:18:02.472Z,58.00
2018-09-22T11:20:32.111Z,58.70
2018-09-22T11:23:01.742Z,57.90
2018-09-22T11:25:31.385Z,58.40
2018-09-22T11:28:01.004Z,58.30
2018-09-22T11:30:30.616Z,58.70
2018-09-22T11:33:00.256Z,58.80
2018-09-22T11:35:29.875Z,58.70
2018-09-22T11:37:59.512Z,58.90
2018-09-22T11:40:29.169Z,58.50
2018-09-22T11:42:58.810Z,59.10
2018-09-22T11:45:28.441Z,58.20
2018-09-22T11:47:58.108Z,58.20
2018-09-22T11:50:27.738Z,58.10
2018-09-22T11:52:57.419Z,57.50
2018-09-22T11:55:27.084Z,57.40
2018-09-22T11:57:56.721Z,56.20
2018-09-22T12:00:26.372Z,55.20
2018-09-22T12:02:56.026Z,55.60
2018-09-22T12:05:25.636Z,54.70
2018-09-22T12:07:55.256Z,55.30
2018-09-22T12:10:24.859Z,54.70
2018-09-22T12:12:54.461Z,54.40
2018-09-22T12:15:24.092Z,53.30
2018-09-22T12:17:53.710Z,53.60
2018-09-22T12:20:23.327Z,52.50
2018-09-22T12:22:52.948Z,51.40
2018-09-22T12:25:22.576Z,51.40
2018-09-22T12:27:52.218Z,49.80
2018-09-22T12:30:21.856Z,48.50
2018-09-22T12:32:51.479Z,46.70
2018-09-22T12:35:21.110Z,38.00
2018-09-22T12:37:50.706Z,35.70
2018-09-22T12:40:20.358Z,36.70
2018-09-22T12:42:50.948Z,37.70
2018-09-22T12:45:20.575Z,36.20
2018-09-22T12:47:50.243Z,32.70
2018-09-22T12:50:19.848Z,30.00
2018-09-22T12:52:49.595Z,29.70
2018-09-22T12:55:19.180Z,30.50
2018-09-22T12:57:48.896Z,30.00
2018-09-22T13:00:18.533Z,27.80
2018-09-22T13:02:48.157Z,25.90
2018-09-22T13:05:17.750Z,25.50
2018-09-22T13:07:47.736Z,25.00
2018-09-22T13:10:17.367Z,25.10
2018-09-22T13:12:47.231Z,24.00
2018-09-22T13:15:16.856Z,25.10
2018-09-22T13:17:46.461Z,26.80
2018-09-22T13:20:16.142Z,29.00
2018-09-22T13:22:45.819Z,29.50
2018-09-22T13:25:15.421Z,28.90
2018-09-22T13:27:45.030Z,28.00
2018-09-22T13:30:14.652Z,27.40
2018-09-22T13:32:44.267Z,28.70
2018-09-22T13:35:13.891Z,28.90
2018-09-22T13:37:43.511Z,29.70
2018-09-22T13:40:13.114Z,30.20
2018-09-22T13:42:42.718Z,31.40
2018-09-22T13:45:12.314Z,31.80
2018-09-22T13:47:41.917Z,33.50
2018-09-22T13:50:11.552Z,35.10
2018-09-22T13:52:41.182Z,32.50
2018-09-22T13:55:10.771Z,28.70
2018-09-22T13:57:40.367Z,27.20
2018-09-22T14:00:10.031Z,27.40
2018-09-22T14:02:39.657Z,28.40
2018-09-22T14:05:09.311Z,27.90
2018-09-22T14:07:38.915Z,28.10
2018-09-22T14:10:08.624Z,28.30
2018-09-22T14:12:38.263Z,26.70
2018-09-22T14:15:07.870Z,25.70
2018-09-22T14:17:37.496Z,25.40
2018-09-22T14:20:07.160Z,25.40
2018-09-22T14:22:37.371Z,25.70
2018-09-22T14:25:07.016Z,25.70
2018-09-22T14:27:36.639Z,25.50
2018-09-22T14:30:06.280Z,26.70
2018-09-22T14:32:35.943Z,26.70
2018-09-22T14:35:05.572Z,25.50
2018-09-22T14:37:35.192Z,25.30
2018-09-22T14:40:05.256Z,26.40
2018-09-22T14:42:34.872Z,27.90
2018-09-22T14:45:04.531Z,28.70
2018-09-22T14:47:34.181Z,28.90
2018-09-22T14:50:04.065Z,27.90
2018-09-22T14:52:33.663Z,27.10
2018-09-22T14:55:03.260Z,26.40
2018-09-22T14:57:32.847Z,25.60
2018-09-22T15:00:02.454Z,25.70
2018-09-22T15:02:32.120Z,26.00
2018-09-22T15:05:01.724Z,25.40
2018-09-22T15:07:31.310Z,24.90
2018-09-22T15:10:00.916Z,24.70
2018-09-22T15:12:30.519Z,24.70
2018-09-22T15:15:00.120Z,24.80
2018-09-22T15:17:29.762Z,25.00
2018-09-22T15:19:59.379Z,25.20
2018-09-22T15:22:28.996Z,26.70
2018-09-22T15:24:58.579Z,27.70
2018-09-22T15:27:28.211Z,28.90
2018-09-22T15:29:57.816Z,30.60
2018-09-22T15:32:27.435Z,33.00
2018-09-22T15:34:57.028Z,35.30
2018-09-22T15:37:26.642Z,37.10
2018-09-22T15:39:56.260Z,38.90
2018-09-22T15:42:25.920Z,39.50
2018-09-22T15:44:55.548Z,40.00
2018-09-22T15:47:25.160Z,40.10
2018-09-22T15:49:54.778Z,41.00
2018-09-22T15:52:24.428Z,41.80
2018-09-22T15:54:54.042Z,42.70
2018-09-22T15:57:23.643Z,43.70
2018-09-22T15:59:53.351Z,44.70
2018-09-22T16:02:23.121Z,45.30
2018-09-22T16:04:52.812Z,46.30
2018-09-22T16:07:22.402Z,46.90
2018-09-22T16:09:52.735Z,47.30
2018-09-22T16:12:22.384Z,47.10
2018-09-22T16:14:52.041Z,47.40
2018-09-22T16:17:21.724Z,47.50
2018-09-22T16:19:51.348Z,47.80
2018-09-22T16:22:21.002Z,48.10
2018-09-22T16:24:50.634Z,48.80
2018-09-22T16:27:20.331Z,49.40
2018-09-22T16:29:49.924Z,50.30
2018-09-22T16:32:19.575Z,51.00
2018-09-22T16:34:49.213Z,51.50
2018-09-22T16:37:19.047Z,52.30
2018-09-22T16:39:48.884Z,53.00
2018-09-22T16:42:18.528Z,53.50
2018-09-22T16:44:48.165Z,53.90
2018-09-22T16:47:17.809Z,54.40
2018-09-22T16:49:47.582Z,54.80
2018-09-22T16:52:17.187Z,55.00
2018-09-22T16:54:56.510Z,55.20
2018-09-22T16:57:28.084Z,55.30
2018-09-22T16:59:57.699Z,55.50
2018-09-22T17:02:27.315Z,56.10
2018-09-22T17:04:56.968Z,56.30
2018-09-22T17:07:26.655Z,56.60
2018-09-22T17:09:56.353Z,57.00
2018-09-22T17:12:26.186Z,57.20
2018-09-22T17:14:55.911Z,57.50
2018-09-22T17:17:25.540Z,58.00
2018-09-22T17:19:55.175Z,58.30
2018-09-22T17:22:24.807Z,58.60
2018-09-22T17:24:54.501Z,58.90
2018-09-22T17:27:24.161Z,59.10
2018-09-22T17:29:53.800Z,59.60
2018-09-22T17:32:23.409Z,59.80
2018-09-22T17:34:53.032Z,60.30
2018-09-22T17:37:22.877Z,60.50
2018-09-22T17:39:52.531Z,60.50
2018-09-22T17:42:22.157Z,61.10
2018-09-22T17:44:51.796Z,61.20
2018-09-22T17:47:21.411Z,61.30
2018-09-22T17:49:51.051Z,61.80
2018-09-22T17:52:20.702Z,62.90
2018-09-22T17:54:50.361Z,64.00
2018-09-22T17:57:20.053Z,65.30
2018-09-22T17:59:49.794Z,66.20
2018-09-22T18:02:19.646Z,67.70
2018-09-22T18:04:49.472Z,69.80
2018-09-22T18:07:19.644Z,69.70
2018-09-22T18:09:49.393Z,70.00
2018-09-22T18:12:19.191Z,71.50
2018-09-22T18:14:48.959Z,71.60
2018-09-22T18:17:18.703Z,72.50
2018-09-22T18:19:48.728Z,72.70
2018-09-22T18:22:18.768Z,74.50
2018-09-22T18:24:48.620Z,75.30
2018-09-22T18:27:19.018Z,75.40
2018-09-22T18:29:48.795Z,75.60
2018-09-22T18:32:18.827Z,76.30
2018-09-22T18:34:48.943Z,77.10
2018-09-22T18:37:19.125Z,77.90
2018-09-22T18:39:48.775Z,78.10
2018-09-22T18:42:18.677Z,78.40
2018-09-22T18:44:49.060Z,78.80
2018-09-22T18:47:19.005Z,79.40
2018-09-22T18:49:49.233Z,80.00
2018-09-22T18:52:19.094Z,80.30
2018-09-22T18:54:48.864Z,80.90
2018-09-22T18:57:18.659Z,81.10
2018-09-22T18:59:49.045Z,81.40
2018-09-22T19:02:18.841Z,81.70
2018-09-22T19:04:49.040Z,82.00
2018-09-22T19:07:19.039Z,82.30
2018-09-22T19:09:50.197Z,82.80
2018-09-22T19:12:20.064Z,83.50
2018-09-22T19:14:55.922Z,84.10
2018-09-22T19:17:29.587Z,84.80
2018-09-22T19:20:18.920Z,85.10
2018-09-22T19:22:52.342Z,85.60
2018-09-22T19:25:24.165Z,85.90
2018-09-22T19:27:56.941Z,86.20
2018-09-22T19:30:34.853Z,87.20
2018-09-22T19:34:10.746Z,86.40
2018-09-22T19:36:46.831Z,87.00
2018-09-22T19:39:21.800Z,87.10
2018-09-22T19:42:11.075Z,87.50
2018-09-22T19:44:44.941Z,87.80
2018-09-22T19:47:19.203Z,88.20
2018-09-22T19:50:24.211Z,88.40
2018-09-22T19:52:54.064Z,88.40
2018-09-22T19:55:23.860Z,88.70
2018-09-22T19:57:53.678Z,88.70
2018-09-22T20:00:23.885Z,89.00
2018-09-22T20:02:54.545Z,89.10
2018-09-22T20:05:24.316Z,89.20
2018-09-22T20:07:54.104Z,89.00
2018-09-22T20:10:25.564Z,89.10
2018-09-22T20:12:55.733Z,89.10
2018-09-22T20:15:25.544Z,89.10
2018-09-22T20:17:55.963Z,88.60
2018-09-22T20:20:26.388Z,88.60
2018-09-22T20:22:56.124Z,88.60
2018-09-22T20:25:32.752Z,88.80
2018-09-22T20:28:02.620Z,88.80
2018-09-22T20:30:51.064Z,88.50
2018-09-22T20:33:20.963Z,88.50
2018-09-22T20:35:50.809Z,88.00
2018-09-22T20:38:20.570Z,88.20
2018-09-22T20:40:51.127Z,88.30
2018-09-22T20:43:20.817Z,88.20
2018-09-22T20:45:50.564Z,88.40
2018-09-22T20:48:20.584Z,88.30
2018-09-22T20:50:50.385Z,88.40
2018-09-22T20:53:20.140Z,88.30
2018-09-22T20:55:49.870Z,88.20
2018-09-22T20:58:19.605Z,88.10
2018-09-22T21:00:49.577Z,88.20
2018-09-22T21:03:19.273Z,88.20
2018-09-22T21:05:48.996Z,88.40
2018-09-22T21:08:18.753Z,88.00
2018-09-22T21:10:48.684Z,88.00
2018-09-22T21:13:18.764Z,88.40
2018-09-22T21:15:48.553Z,88.50
2018-09-22T21:18:18.273Z,88.70
2018-09-22T21:20:47.976Z,88.40
2018-09-22T21:23:17.727Z,88.50
2018-09-22T21:25:47.450Z,88.40
2018-09-22T21:28:17.176Z,88.40
2018-09-22T21:30:47.056Z,88.60
2018-09-22T21:33:17.792Z,88.70
2018-09-22T21:35:47.735Z,89.00
2018-09-22T21:38:17.432Z,88.60
2018-09-22T21:40:47.212Z,88.60
2018-09-22T21:43:17.131Z,88.60
2018-09-22T21:45:46.840Z,88.90
2018-09-22T21:48:16.615Z,89.10
2018-09-22T21:50:46.328Z,88.80
2018-09-22T21:53:18.220Z,88.90
2018-09-22T21:55:48.020Z,88.80
2018-09-22T21:58:17.781Z,89.00
2018-09-22T22:00:51.573Z,89.00
2018-09-22T22:03:22.152Z,89.00
2018-09-22T22:05:51.990Z,89.40
2018-09-22T22:08:21.684Z,89.40
2018-09-22T22:10:51.375Z,89.40
2018-09-22T22:13:21.064Z,89.70
2018-09-22T22:15:50.761Z,89.60
2018-09-22T22:18:20.448Z,89.50
2018-09-22T22:20:50.185Z,89.50
2018-09-22T22:23:19.873Z,89.50
2018-09-22T22:25:50.495Z,89.50
2018-09-22T22:28:20.188Z,89.50
2018-09-22T22:30:49.929Z,89.80
2018-09-22T22:33:19.597Z,89.90
2018-09-22T22:35:49.265Z,90.00
2018-09-22T22:38:19.602Z,89.50
2018-09-22T22:40:49.301Z,89.50
2018-09-22T22:43:19.118Z,89.40
2018-09-22T22:45:48.829Z,89.30
2018-09-22T22:48:18.609Z,89.00
2018-09-22T22:50:48.333Z,88.90
2018-09-22T22:53:18.052Z,88.90
2018-09-22T22:55:47.769Z,88.70
2018-09-22T22:58:17.454Z,88.60
2018-09-22T23:00:47.138Z,88.80
2018-09-22T23:03:16.830Z,88.80
2018-09-22T23:05:46.557Z,88.90
2018-09-22T23:08:16.236Z,88.90
2018-09-22T23:10:45.914Z,89.00
2018-09-22T23:13:15.544Z,89.10
2018-09-22T23:15:45.217Z,89.00
2018-09-22T23:18:14.900Z,88.90
2018-09-22T23:20:44.640Z,88.90
2018-09-22T23:23:14.316Z,88.90
2018-09-22T23:25:44.004Z,88.60
2018-09-22T23:28:13.696Z,88.10
2018-09-22T23:30:43.412Z,88.20
2018-09-22T23:33:13.051Z,88.30
2018-09-22T23:35:42.743Z,88.30
2018-09-22T23:38:12.401Z,88.40
2018-09-22T23:40:42.043Z,88.80
2018-09-22T23:43:11.757Z,89.00
2018-09-22T23:45:41.450Z,88.90
2018-09-22T23:48:11.100Z,89.10
2018-09-22T23:50:40.773Z,89.20
2018-09-22T23:53:10.444Z,89.20
2018-09-22T23:55:40.130Z,89.50
2018-09-22T23:58:09.924Z,89.30
